Mesa Verde, CO (81330)

10:07 AM MST on February 14, 2016 (GMT -0700)
RAWS | | Change Station
CLOSE
Current Station
Personal Weather Station
Location: Mesa Verde, CO
Elevation: 7819 ft
Nearby Weather Stations

Elev 7819 ft 37.30 °N, 108.41 °W | Updated 27 minutes ago

Partly Cloudy
Partly Cloudy
43.0 °F
Feels Like 39 °F
N
6.0
Wind Variable Wind from NW
Gusts 11.0 mph

Today
High -- | Low -- °F
--% Chance of Precip.
Yesterday
High -- | Low -- °F
Precip. -- in
Pressure 30.16 in
Visibility 10.0 miles
Clouds Clear
Windchill 39 °F
Dew Point 6.0 °F
Humidity 21%
Rainfall in
Snow Depth Not available.
7:04 AM 5:52 PM
Waxing Crescent, 43% visible
METAR KCEZ 141653Z AUTO 00000KT 10SM CLR 03/M06 A3017 RMK AO2 SLP211 T00281061
Pressure 30.16 in
Visibility 10.0 miles
Clouds Clear
Windchill 39 °F
Dew Point 6.0 °F
Humidity 21%
Rainfall in
Snow Depth Not available.
7:04 AM 5:52 PM
Waxing Crescent, 43% visible
METAR KCEZ 141653Z AUTO 00000KT 10SM CLR 03/M06 A3017 RMK AO2 SLP211 T00281061

10-Day Weather Forecast

Almanac

Astronomy

Feb. 14, 2016 Rise Set
Actual Time
Civil Twilight
Nautical Twilight
Astronomical Twilight
Moon
Length of Visible Light
Length of Day
Tomorrow will be .
, % of the Moon is Illuminated

Today's Extremes

State Highs State Lows

Community

WunderPhotos

Upload Photos

1,892,849 photos uploaded!

WunderBlog® & News

Nearby

Air Quality

  Air Quality AQ Index Pollutant
Not available.

Snow Depth

Station Depth Elevation

Earthquake Activity

City Distance Mag. Time & Date
Minimum magnitude displayed is 2.5.

Coastal Water Temperatures

Place Temperature

Stations

Nearby Weather Stations

Station Location Temp. Windchill Dew Point Humidity Wind Precip. Elev Updated Type
                   

Watches & Warnings

There are currently no watches in effect.